Time;durP1;ratioP1;P1;durP2;ratioP2;P2;SDS_P1;SDS_P2;PMS_P1;PMS_P2;Temp;Humidity;BMP_temperature;BMP_pressure;BME280_temperature;BME280_humidity;BME280_pressure;Samples;Min_cycle;Max_cycle;Signal;HPM_P1;HPM_P2
2020/10/03 08:19:29;;;;;;;15;7.5;;;;;;;28.49;29.90723;911.2138;;;;
2020/10/03 08:22:30;;;;;;;0;0;;;;;;;28.45;29.10742;911.2889;;;;
2020/10/03 08:24:59;;;;;;;1.5;0;;;;;;;28.89;28.07813;911.3123;;;;
2020/10/03 08:27:24;;;;;;;0;0;;;;;;;28.45;29.9873;911.5067;;;;
2020/10/03 08:29:54;;;;;;;0;0;;;;;;;28.33;29.24316;911.6067;;;;
2020/10/03 08:32:19;;;;;;;0;0;;;;;;;28.23;29.16504;911.6072;;;;
2020/10/03 08:34:48;;;;;;;0.2;0.2;;;;;;;28.84;29.40723;911.6264;;;;
2020/10/03 08:37:13;;;;;;;0.1;0.1;;;;;;;27.81;29.81445;911.3405;;;;
2020/10/03 08:39:42;;;;;;;0.1;0.1;;;;;;;27.69;30.85156;911.2872;;;;
2020/10/03 08:42:08;;;;;;;0.2;0.1;;;;;;;27.8;30.06348;911.5175;;;;
2020/10/03 08:44:32;;;;;;;0.1;0;;;;;;;26.98;30.96875;911.2374;;;;
2020/10/03 08:47:01;;;;;;;0.1;0.1;;;;;;;28.2;30.04199;911.2054;;;;
2020/10/03 08:49:26;;;;;;;0;0;;;;;;;27.54;29.07227;911.1987;;;;
2020/10/03 08:51:52;;;;;;;0;0;;;;;;;27.84;31.63281;911.2319;;;;
2020/10/03 08:54:18;;;;;;;0.5;0.2;;;;;;;28.57;29.36523;911.272;;;;
2020/10/03 08:56:45;;;;;;;0;0;;;;;;;28.85;28.15723;911.4364;;;;
2020/10/03 08:59:10;;;;;;;0;0;;;;;;;28.51;28.87402;911.6364;;;;
2020/10/03 09:01:36;;;;;;;0.1;0.1;;;;;;;28.2;29.94727;911.7914;;;;
2020/10/03 09:04:02;;;;;;;0;0;;;;;;;28.23;30.51953;911.4359;;;;
2020/10/03 09:06:27;;;;;;;0.1;0.1;;;;;;;28.05;28.42871;911.2734;;;;
2020/10/03 09:08:55;;;;;;;0.2;0.1;;;;;;;27.94;30.40527;911.3748;;;;
2020/10/03 09:11:20;;;;;;;0;0;;;;;;;28.77;29.39063;911.5226;;;;
2020/10/03 09:13:45;;;;;;;0;0;;;;;;;29.33;28.46191;911.5849;;;;
2020/10/03 09:16:11;;;;;;;0;0;;;;;;;28.4;28.01074;911.8734;;;;
2020/10/03 09:18:36;;;;;;;0.2;0.1;;;;;;;28.45;31.08203;911.8276;;;;
2020/10/03 09:21:05;;;;;;;0.2;0.1;;;;;;;28.81;30.38086;911.9836;;;;
2020/10/03 09:23:30;;;;;;;0.1;0.1;;;;;;;28.47;29.91797;912.052;;;;
2020/10/03 09:25:58;;;;;;;0.4;0.1;;;;;;;26.94;30.89453;912.1908;;;;
2020/10/03 09:28:22;;;;;;;0;0;;;;;;;27.17;30.58984;912.0355;;;;
2020/10/03 09:30:48;;;;;;;0.9;0.4;;;;;;;26.65;38.79785;912.115;;;;
2020/10/03 09:33:13;;;;;;;2.5;0.5;;;;;;;25.81;39.36328;912.7062;;;;
2020/10/03 09:35:40;;;;;;;3;0.4;;;;;;;24.72;43.13574;912.382;;;;
2020/10/03 09:38:05;;;;;;;0.1;0.1;;;;;;;23.29;45.06641;912.1609;;;;
2020/10/03 09:40:30;;;;;;;1.1;0.3;;;;;;;21.97;47.31055;912.2399;;;;
2020/10/03 09:42:56;;;;;;;0.9;0.5;;;;;;;22.02;49.71973;912.5128;;;;
2020/10/03 09:45:21;;;;;;;0.6;0.3;;;;;;;22.12;50.36328;912.6434;;;;
2020/10/03 09:47:46;;;;;;;0.4;0.2;;;;;;;21.96;50.12305;912.7582;;;;
2020/10/03 09:50:16;;;;;;;0.2;0.1;;;;;;;21.09;50.96094;912.9322;;;;
2020/10/03 09:52:42;;;;;;;0.2;0.1;;;;;;;20.7;52.51563;912.8881;;;;
2020/10/03 09:55:07;;;;;;;0.2;0.2;;;;;;;20.14;53.85059;912.8663;;;;
2020/10/03 09:57:35;;;;;;;0.2;0.2;;;;;;;19.74;54.81738;912.8778;;;;
2020/10/03 10:00:00;;;;;;;1;0.5;;;;;;;19.55;56.11035;912.8764;;;;
2020/10/03 10:02:25;;;;;;;1.2;0.1;;;;;;;19.15;57.06055;913.0226;;;;
2020/10/03 10:04:50;;;;;;;2;0.5;;;;;;;19.44;55.98047;913.3144;;;;
2020/10/03 10:07:16;;;;;;;0.4;0.3;;;;;;;19.1;56.9502;913.3459;;;;
2020/10/03 10:09:41;;;;;;;1.9;0.9;;;;;;;19.05;58.33984;913.6881;;;;
2020/10/03 10:12:07;;;;;;;0.1;0.1;;;;;;;18.88;57.79297;913.4638;;;;
2020/10/03 10:14:34;;;;;;;2;0.4;;;;;;;18.39;58.11328;913.7639;;;;
2020/10/03 10:16:59;;;;;;;0.7;0.2;;;;;;;18.16;57.45508;913.8;;;;
2020/10/03 10:19:24;;;;;;;1.3;0.3;;;;;;;17.84;57.86621;914.0679;;;;
2020/10/03 10:21:51;;;;;;;0;0;;;;;;;17.28;57.9082;914.1255;;;;
2020/10/03 10:24:17;;;;;;;0.3;0.3;;;;;;;17.02;59.36914;913.9872;;;;
2020/10/03 10:26:42;;;;;;;0.2;0.1;;;;;;;16.56;60.25586;914.2559;;;;
2020/10/03 10:29:16;;;;;;;0.2;0.1;;;;;;;16;63.10547;914.7079;;;;
2020/10/03 10:31:41;;;;;;;0.3;0.2;;;;;;;15.74;63.52832;914.7478;;;;
2020/10/03 10:34:06;;;;;;;0;0;;;;;;;15.48;63.99902;914.9078;;;;
2020/10/03 10:36:31;;;;;;;0;0;;;;;;;15.29;64.5498;915.1511;;;;
2020/10/03 10:38:56;;;;;;;1.4;0.1;;;;;;;15.02;67.01172;915.1609;;;;
2020/10/03 10:41:22;;;;;;;0.4;0.1;;;;;;;14.93;67.77148;915.1267;;;;
2020/10/03 10:43:47;;;;;;;0;0;;;;;;;14.94;69.18066;915.4021;;;;
2020/10/03 10:46:13;;;;;;;0.1;0.1;;;;;;;14.96;68.7002;915.5397;;;;
2020/10/03 10:48:38;;;;;;;0;0;;;;;;;15;68.18652;915.598;;;;
2020/10/03 10:51:05;;;;;;;0;0;;;;;;;15.06;69.60254;915.858;;;;
2020/10/03 10:53:30;;;;;;;0.6;0.2;;;;;;;14.73;69.72363;915.965;;;;
2020/10/03 10:55:57;;;;;;;0.1;0.1;;;;;;;14.71;69.64063;915.9941;;;;
2020/10/03 10:58:22;;;;;;;0;0;;;;;;;14.64;70.00879;915.9208;;;;
2020/10/03 11:00:47;;;;;;;0.2;0.2;;;;;;;14.51;70.14844;916.0848;;;;
2020/10/03 11:03:15;;;;;;;0.4;0.2;;;;;;;14.35;69.47852;915.9352;;;;
2020/10/03 11:05:39;;;;;;;0;0;;;;;;;13.91;69.36133;916.103;;;;
2020/10/03 11:08:06;;;;;;;0.3;0.1;;;;;;;13.66;70.7832;916.2729;;;;
2020/10/03 11:10:31;;;;;;;0;0;;;;;;;13.59;70.86328;916.6287;;;;
2020/10/03 11:12:56;;;;;;;0.4;0.1;;;;;;;13.55;71.62891;916.9138;;;;
2020/10/03 11:15:22;;;;;;;0;0;;;;;;;13.4;72.38477;916.835;;;;
2020/10/03 11:17:47;;;;;;;0.2;0.2;;;;;;;12.99;72.70508;916.9662;;;;
2020/10/03 11:20:17;;;;;;;0.1;0.1;;;;;;;12.85;73.7627;917.1003;;;;
2020/10/03 11:22:43;;;;;;;1.3;0.1;;;;;;;12.55;75.32813;916.9826;;;;
2020/10/03 11:25:08;;;;;;;0.1;0.1;;;;;;;12.48;76.25781;917.1395;;;;
2020/10/03 11:27:34;;;;;;;0.3;0.1;;;;;;;12.46;76.79199;917.3312;;;;
2020/10/03 11:29:59;;;;;;;0.9;0.1;;;;;;;12.56;76.73047;917.4867;;;;
2020/10/03 11:32:25;;;;;;;0.1;0.1;;;;;;;12.36;76.78613;917.378;;;;
2020/10/03 11:34:50;;;;;;;0;0;;;;;;;12.37;76.98242;917.3439;;;;
2020/10/03 11:37:17;;;;;;;1.4;0;;;;;;;12.25;77.88965;917.1874;;;;
2020/10/03 11:39:42;;;;;;;0.5;0.3;;;;;;;12.4;77.81445;917.2001;;;;
2020/10/03 11:42:08;;;;;;;0.5;0.2;;;;;;;12.33;77.43457;917.4601;;;;
2020/10/03 11:44:33;;;;;;;0.1;0.1;;;;;;;12.23;78.75781;917.5916;;;;
2020/10/03 11:46:59;;;;;;;1.2;0.2;;;;;;;11.96;79.16699;917.6894;;;;
2020/10/03 11:49:24;;;;;;;0;0;;;;;;;11.94;78.94629;917.575;;;;
2020/10/03 11:51:51;;;;;;;0.2;0.1;;;;;;;11.98;78.94141;917.2668;;;;
2020/10/03 11:54:16;;;;;;;0.3;0.1;;;;;;;12;78.91211;917.4886;;;;
2020/10/03 11:56:42;;;;;;;0;0;;;;;;;11.86;78.33594;917.548;;;;
2020/10/03 11:59:07;;;;;;;0.1;0.1;;;;;;;11.99;77.60449;917.6476;;;;
2020/10/03 12:01:34;;;;;;;0.1;0.1;;;;;;;11.92;78.29004;917.5931;;;;
2020/10/03 12:03:59;;;;;;;0.1;0;;;;;;;11.93;78.71387;917.6903;;;;
2020/10/03 12:06:26;;;;;;;0.2;0.1;;;;;;;11.97;78.90332;917.662;;;;
2020/10/03 12:08:51;;;;;;;0.1;0.1;;;;;;;11.93;78.69238;917.7054;;;;
2020/10/03 12:11:17;;;;;;;0;0;;;;;;;11.92;78.42578;917.7216;;;;
2020/10/03 12:13:43;;;;;;;0.1;0.1;;;;;;;11.9;78.34375;917.6911;;;;
2020/10/03 12:16:09;;;;;;;0.1;0.1;;;;;;;11.78;78.80176;917.7483;;;;
2020/10/03 12:18:35;;;;;;;0.1;0.1;;;;;;;11.78;78.87109;917.97;;;;
2020/10/03 12:21:00;;;;;;;0.2;0.1;;;;;;;11.74;78.71582;917.9476;;;;
2020/10/03 12:23:25;;;;;;;2.1;0.2;;;;;;;11.82;78.66113;918.1318;;;;
2020/10/03 12:25:54;;;;;;;1;0.1;;;;;;;11.73;77.79785;918.3633;;;;
2020/10/03 12:28:21;;;;;;;1.3;0.8;;;;;;;11.24;80.99219;918.4083;;;;
2020/10/03 12:30:44;;;;;;;0.1;0.1;;;;;;;11.21;80.44629;918.6814;;;;
2020/10/03 12:33:09;;;;;;;0.3;0.2;;;;;;;11.22;81.82227;918.8589;;;;
2020/10/03 12:35:37;;;;;;;0.4;0.4;;;;;;;11.35;81.58301;918.7889;;;;
2020/10/03 12:38:02;;;;;;;0.6;0.5;;;;;;;11.31;81.02734;918.6855;;;;
2020/10/03 12:40:31;;;;;;;0.8;0.5;;;;;;;11.24;80.67188;918.9014;;;;
2020/10/03 12:42:55;;;;;;;1.2;0.7;;;;;;;11.45;80.6748;919.1077;;;;
2020/10/03 12:45:24;;;;;;;1;0.3;;;;;;;11.61;80.11035;919.0991;;;;
2020/10/03 12:47:49;;;;;;;0.4;0.3;;;;;;;11.68;78.94434;919.1961;;;;
2020/10/03 12:50:15;;;;;;;0.5;0.4;;;;;;;11.64;78.85742;919.4969;;;;
2020/10/03 12:52:40;;;;;;;0.7;0.5;;;;;;;11.3;80.39648;919.5134;;;;
2020/10/03 12:55:13;;;;;;;0.8;0.7;;;;;;;11.41;80.36133;919.4847;;;;
2020/10/03 12:57:41;;;;;;;0.4;0.4;;;;;;;11.53;79.70801;919.2148;;;;
2020/10/03 13:00:06;;;;;;;3.1;0.9;;;;;;;11.41;81.46875;919.562;;;;
2020/10/03 13:02:36;;;;;;;0.5;0.4;;;;;;;11.2;82.13867;919.6381;;;;
2020/10/03 13:05:01;;;;;;;0.2;0.2;;;;;;;11.05;83.76758;919.8097;;;;
2020/10/03 13:07:29;;;;;;;1.6;0.8;;;;;;;10.76;82.43164;919.6817;;;;
2020/10/03 13:09:54;;;;;;;0.8;0.6;;;;;;;11.2;82.75488;919.6064;;;;
2020/10/03 13:12:22;;;;;;;0;0;;;;;;;11.49;80.3418;919.9203;;;;
2020/10/03 13:14:47;;;;;;;0.2;0.2;;;;;;;11.63;78.86621;920.0392;;;;
2020/10/03 13:17:15;;;;;;;4.6;2.1;;;;;;;11.25;81.30273;919.8236;;;;
2020/10/03 13:19:40;;;;;;;1.9;0.6;;;;;;;11.48;81.02539;918.7674;;;;
2020/10/03 13:22:10;;;;;;;0.2;0.2;;;;;;;11.68;80.87891;918.6046;;;;
2020/10/03 13:24:37;;;;;;;0.9;0.3;;;;;;;11.96;80.30078;918.7158;;;;
2020/10/03 13:27:00;;;;;;;0.4;0.4;;;;;;;12.59;78.9043;918.7989;;;;
2020/10/03 13:29:26;;;;;;;0.7;0.4;;;;;;;13.08;76.6377;919.2834;;;;
2020/10/03 13:31:51;;;;;;;0.2;0.2;;;;;;;13.25;75.27832;919.5089;;;;
2020/10/03 13:34:19;;;;;;;1.1;0.6;;;;;;;13.14;75.7627;919.6541;;;;
2020/10/03 13:36:44;;;;;;;1.9;0.7;;;;;;;12.76;76.33984;919.8724;;;;
2020/10/03 13:39:10;;;;;;;0.3;0.2;;;;;;;12.29;78.22949;919.8984;;;;
2020/10/03 13:41:35;;;;;;;1.5;0.7;;;;;;;11.76;79.78223;919.8448;;;;
2020/10/03 13:44:00;;;;;;;1.5;0.9;;;;;;;11.34;82.08496;919.7692;;;;
2020/10/03 13:46:26;;;;;;;1.2;0.8;;;;;;;11.27;84.0166;919.4902;;;;
2020/10/03 13:48:52;;;;;;;0.7;0.5;;;;;;;11.39;82.79297;919.3846;;;;
2020/10/03 13:51:18;;;;;;;0.8;0.5;;;;;;;11.61;81.06055;919.2075;;;;
2020/10/03 13:53:44;;;;;;;0.5;0.3;;;;;;;11.57;80.97363;919.7137;;;;
2020/10/03 13:56:09;;;;;;;0.1;0.1;;;;;;;11.71;82.06348;919.539;;;;
2020/10/03 13:58:35;;;;;;;0.4;0.3;;;;;;;11.83;80.15039;919.6108;;;;
2020/10/03 14:01:00;;;;;;;0.3;0.2;;;;;;;11.96;79.54492;919.51;;;;
2020/10/03 14:03:25;;;;;;;1;0.3;;;;;;;12.06;79.20801;919.5603;;;;
2020/10/03 14:05:50;;;;;;;0.1;0.1;;;;;;;12.15;78.7207;919.7567;;;;
2020/10/03 14:08:16;;;;;;;0.6;0.3;;;;;;;12.41;78.23047;919.4627;;;;
2020/10/03 14:10:41;;;;;;;0;0;;;;;;;13.07;77.24707;919.8086;;;;
2020/10/03 14:13:06;;;;;;;0.2;0.1;;;;;;;13.83;75.25098;919.4713;;;;
2020/10/03 14:15:33;;;;;;;2.1;1;;;;;;;13.79;73.89941;919.4361;;;;
2020/10/03 14:17:58;;;;;;;2;1.1;;;;;;;14.12;74.64648;919.4878;;;;
2020/10/03 14:20:24;;;;;;;0.8;0.6;;;;;;;14.39;71.65039;919.5725;;;;
2020/10/03 14:22:49;;;;;;;0.6;0.3;;;;;;;14.43;71.15137;919.4537;;;;
2020/10/03 14:25:16;;;;;;;0.3;0.3;;;;;;;14.55;70.06543;919.1749;;;;
2020/10/03 14:27:41;;;;;;;0.4;0.3;;;;;;;15.01;66.42285;919.3514;;;;
2020/10/03 14:30:09;;;;;;;0.1;0.1;;;;;;;15.31;66.3418;919.3541;;;;
2020/10/03 14:32:34;;;;;;;0.3;0.3;;;;;;;16.51;63.61719;919.2264;;;;
2020/10/03 14:34:59;;;;;;;0.4;0.4;;;;;;;18.08;58.51367;919.1167;;;;
2020/10/03 14:37:24;;;;;;;0.1;0.1;;;;;;;19.61;53.15625;919.0148;;;;
2020/10/03 14:39:51;;;;;;;0.1;0.1;;;;;;;20.68;49.18359;918.705;;;;
2020/10/03 14:42:14;;;;;;;0.4;0.3;;;;;;;21.02;48.37891;918.5502;;;;
2020/10/03 14:44:41;;;;;;;0.2;0.2;;;;;;;21.43;47.23047;918.6092;;;;
2020/10/03 14:47:06;;;;;;;0.2;0.1;;;;;;;20.8;47.54883;918.5847;;;;
2020/10/03 14:49:31;;;;;;;0.3;0.3;;;;;;;20.46;49.33496;918.6471;;;;
2020/10/03 14:51:56;;;;;;;0.3;0.2;;;;;;;20.42;49.43555;918.8016;;;;
2020/10/03 14:54:21;;;;;;;0.1;0.1;;;;;;;20.59;49.3252;918.8354;;;;
2020/10/03 14:56:46;;;;;;;0.3;0.2;;;;;;;20.53;49.78613;918.69;;;;
2020/10/03 14:59:12;;;;;;;0.2;0.2;;;;;;;20.4;48.56836;919.0207;;;;
2020/10/03 15:01:37;;;;;;;0.1;0.1;;;;;;;19.87;50.71582;919.0667;;;;
2020/10/03 15:04:02;;;;;;;0;0;;;;;;;19.38;51.87109;919.2198;;;;
2020/10/03 15:06:27;;;;;;;0.2;0.1;;;;;;;18.74;53.78516;919.0671;;;;
2020/10/03 15:08:57;;;;;;;0.5;0.4;;;;;;;16.78;59.35938;919.3162;;;;
2020/10/03 15:11:21;;;;;;;1;0.4;;;;;;;16.9;60.09473;919.0892;;;;
2020/10/03 15:13:47;;;;;;;0.2;0.1;;;;;;;16.45;61.9082;918.9805;;;;
2020/10/03 15:16:12;;;;;;;0.1;0.1;;;;;;;16.17;62.72363;919.1448;;;;
2020/10/03 15:18:39;;;;;;;0.1;0.1;;;;;;;16.08;63.54395;918.9785;;;;
2020/10/03 15:21:04;;;;;;;0;0;;;;;;;15.7;64.13672;919.0394;;;;
2020/10/03 15:23:50;;;;;;;0.8;0.4;;;;;;;14.97;65.54004;919.0676;;;;
2020/10/03 15:26:04;;;;;;;0.3;0.3;;;;;;;14.69;66.73145;919.0413;;;;
2020/10/03 15:28:29;;;;;;;0.2;0.2;;;;;;;14.55;66.69727;919.0703;;;;
2020/10/03 15:30:54;;;;;;;0.5;0.2;;;;;;;14.23;67.82324;919.0042;;;;
2020/10/03 15:33:19;;;;;;;0.2;0.2;;;;;;;13.77;69.46582;919.0651;;;;
2020/10/03 15:35:44;;;;;;;0;0;;;;;;;13.72;70.12598;919.1;;;;
2020/10/03 15:38:09;;;;;;;0.1;0.1;;;;;;;13.19;71.95996;919.1716;;;;
2020/10/03 15:40:34;;;;;;;0.2;0.2;;;;;;;12.75;73.06738;919.1555;;;;
2020/10/03 15:43:00;;;;;;;1;0.5;;;;;;;12.37;77.52148;919.1142;;;;
2020/10/03 15:45:25;;;;;;;0.6;0.3;;;;;;;11.97;79.92676;919.0312;;;;
2020/10/03 15:47:50;;;;;;;0.1;0.1;;;;;;;11.73;81.48438;919.1248;;;;
2020/10/03 15:50:18;;;;;;;1;0.4;;;;;;;11.49;83.07715;919.0915;;;;
2020/10/03 15:52:43;;;;;;;0.5;0.4;;;;;;;11.51;83.16992;918.9771;;;;
2020/10/03 15:55:08;;;;;;;0.3;0.2;;;;;;;11.38;82.68652;918.9116;;;;
2020/10/03 15:57:33;;;;;;;0.6;0.2;;;;;;;11.5;82.89355;919.0681;;;;
2020/10/03 16:00:02;;;;;;;0.3;0.3;;;;;;;11.58;81.87891;919.0949;;;;
2020/10/03 16:02:27;;;;;;;0.8;0.7;;;;;;;11.73;81.74805;919.0538;;;;
2020/10/03 16:04:53;;;;;;;1;0.6;;;;;;;11.83;82.00684;918.9911;;;;
2020/10/03 16:07:18;;;;;;;0.7;0.5;;;;;;;11.83;81.74219;919.0335;;;;
2020/10/03 16:09:43;;;;;;;1.1;0.5;;;;;;;11.84;82.47656;919.0237;;;;
2020/10/03 16:12:08;;;;;;;0.5;0.5;;;;;;;11.76;81.12109;918.9414;;;;
2020/10/03 16:14:33;;;;;;;0.6;0.5;;;;;;;11.69;81.13379;918.9886;;;;
2020/10/03 16:16:58;;;;;;;0.6;0.5;;;;;;;11.53;81.70996;919.0059;;;;
2020/10/03 16:19:24;;;;;;;1.1;0.5;;;;;;;11.4;82.51953;919.017;;;;
2020/10/03 16:21:49;;;;;;;0.6;0.6;;;;;;;11.2;83.85449;919.0455;;;;
2020/10/03 16:24:15;;;;;;;1.3;0.9;;;;;;;11.28;83.94824;919.0806;;;;
2020/10/03 16:26:41;;;;;;;1.4;0.9;;;;;;;11.23;83.72266;919.0363;;;;
2020/10/03 16:29:06;;;;;;;1.4;0.7;;;;;;;11.22;83.91504;918.9753;;;;
2020/10/03 16:31:31;;;;;;;1.3;1;;;;;;;11.04;84.42871;919.0165;;;;
2020/10/03 16:33:58;;;;;;;1.6;0.9;;;;;;;10.92;86.10645;918.9962;;;;
2020/10/03 16:36:24;;;;;;;1.8;1;;;;;;;10.91;86.19629;918.9303;;;;
2020/10/03 16:38:49;;;;;;;1.3;1.1;;;;;;;10.92;85.71973;918.8106;;;;
2020/10/03 16:41:14;;;;;;;4.8;1.6;;;;;;;11.04;85.68652;918.843;;;;
2020/10/03 16:43:40;;;;;;;26.9;11.1;;;;;;;11.01;85.28027;918.8706;;;;
2020/10/03 16:46:05;;;;;;;4.9;2.8;;;;;;;11.01;85.09766;918.8214;;;;
2020/10/03 16:48:30;;;;;;;1.6;0.9;;;;;;;10.85;85.51172;918.907;;;;
2020/10/03 16:50:55;;;;;;;3.3;1.3;;;;;;;10.76;86.38477;918.8992;;;;
2020/10/03 16:53:20;;;;;;;2;1.2;;;;;;;10.9;85.96582;918.8414;;;;
2020/10/03 16:55:46;;;;;;;1.5;1.1;;;;;;;10.81;87.1377;918.7731;;;;
2020/10/03 16:58:12;;;;;;;1.5;0.8;;;;;;;10.72;87.51758;918.7051;;;;
2020/10/03 17:00:37;;;;;;;2.2;0.8;;;;;;;10.78;87.34961;918.8469;;;;
2020/10/03 17:03:02;;;;;;;2;1.1;;;;;;;10.44;88.60449;918.8653;;;;
2020/10/03 17:05:28;;;;;;;0.8;0.7;;;;;;;10.46;89.04004;918.7466;;;;
2020/10/03 17:07:53;;;;;;;1.5;1.1;;;;;;;10.43;89.03613;918.7988;;;;
2020/10/03 17:10:18;;;;;;;2.4;1.3;;;;;;;10.42;89.00977;918.8715;;;;
2020/10/03 17:12:46;;;;;;;1.8;1.2;;;;;;;10.54;88.6709;918.7781;;;;
2020/10/03 17:15:09;;;;;;;2.7;1.3;;;;;;;10.61;88.20605;918.7942;;;;
2020/10/03 17:17:35;;;;;;;2.4;1.6;;;;;;;10.43;89.08008;918.7344;;;;
2020/10/03 17:20:00;;;;;;;2.4;1.3;;;;;;;10.45;89.07422;918.7028;;;;
2020/10/03 17:22:25;;;;;;;2.5;1.4;;;;;;;10.58;88.66699;918.7597;;;;
2020/10/03 17:24:50;;;;;;;2.5;1.5;;;;;;;10.6;88.24805;918.7012;;;;
2020/10/03 17:27:16;;;;;;;2.4;1.4;;;;;;;10.63;88.08398;918.8058;;;;
2020/10/03 17:29:45;;;;;;;3.8;1.6;;;;;;;10.53;88.44043;918.7896;;;;
2020/10/03 17:32:09;;;;;;;3;1.6;;;;;;;10.46;89.01953;918.8021;;;;
2020/10/03 17:34:34;;;;;;;1.5;1;;;;;;;10.45;89.04004;918.7896;;;;
2020/10/03 17:36:59;;;;;;;2.3;1.2;;;;;;;10.4;89.37109;918.808;;;;
2020/10/03 17:39:25;;;;;;;2.8;1.4;;;;;;;10.36;89.32813;918.7881;;;;
2020/10/03 17:41:50;;;;;;;2.8;1.3;;;;;;;10.43;89.11426;918.7536;;;;
2020/10/03 17:44:16;;;;;;;2;1.4;;;;;;;10.56;88.53711;918.6671;;;;
2020/10/03 17:46:41;;;;;;;1.7;1.3;;;;;;;10.66;87.96387;918.818;;;;
2020/10/03 17:49:07;;;;;;;1.2;1;;;;;;;10.66;87.82715;918.7686;;;;
2020/10/03 17:51:33;;;;;;;2.2;1.1;;;;;;;10.66;87.4502;918.5728;;;;
2020/10/03 17:53:58;;;;;;;2.9;1.5;;;;;;;10.55;87.6084;918.6339;;;;
2020/10/03 17:56:23;;;;;;;2.1;1.4;;;;;;;10.26;88.80566;918.6273;;;;
2020/10/03 17:58:48;;;;;;;2.4;1.4;;;;;;;10.32;88.50977;918.5853;;;;
2020/10/03 18:01:14;;;;;;;3.5;1.9;;;;;;;10.46;87.80762;918.5579;;;;
2020/10/03 18:03:42;;;;;;;2.2;1.7;;;;;;;10.49;87.33496;918.5556;;;;
2020/10/03 18:06:06;;;;;;;1.6;1.3;;;;;;;10.38;87.55273;918.5418;;;;
2020/10/03 18:08:29;;;;;;;1.7;1.2;;;;;;;10.19;87.95996;918.57;;;;
2020/10/03 18:10:54;;;;;;;1.2;0.9;;;;;;;10.06;88.19629;918.5034;;;;
2020/10/03 18:13:20;;;;;;;1.4;0.9;;;;;;;10.06;87.85352;918.4821;;;;
2020/10/03 18:15:46;;;;;;;2.3;1.3;;;;;;;9.69;90.29688;918.4643;;;;
2020/10/03 18:18:11;;;;;;;3.4;1.9;;;;;;;9.57;91.41211;918.4091;;;;
2020/10/03 18:20:51;;;;;;;7.2;2.1;;;;;;;9.68;91.07031;918.3873;;;;
2020/10/03 18:23:15;;;;;;;4.4;2.6;;;;;;;9.7;91.33594;918.259;;;;
2020/10/03 18:25:40;;;;;;;7.2;2.5;;;;;;;9.69;91.8125;918.3237;;;;
2020/10/03 18:28:05;;;;;;;4.4;2.6;;;;;;;9.87;91.05273;918.2226;;;;
2020/10/03 18:30:31;;;;;;;4.8;2.3;;;;;;;9.98;90.01367;918.249;;;;
2020/10/03 18:32:56;;;;;;;6.8;1.8;;;;;;;9.81;89.86523;918.1856;;;;
2020/10/03 18:35:22;;;;;;;2.5;1.4;;;;;;;9.67;90.92969;918.1469;;;;
2020/10/03 18:37:47;;;;;;;5.7;2.3;;;;;;;9.66;90.83789;918.1805;;;;
2020/10/03 18:40:13;;;;;;;3.3;2.1;;;;;;;9.75;90.27441;918.0475;;;;
2020/10/03 18:42:38;;;;;;;3.6;2.1;;;;;;;9.79;90.20215;917.9562;;;;
2020/10/03 18:45:03;;;;;;;3.6;2.3;;;;;;;9.62;90.79297;917.9589;;;;
2020/10/03 18:47:29;;;;;;;4.9;2.8;;;;;;;9.66;90.87109;917.9587;;;;
2020/10/03 18:49:54;;;;;;;3.2;2;;;;;;;9.53;91.36816;917.8014;;;;
2020/10/03 18:52:19;;;;;;;13.3;4.5;;;;;;;9.52;91.52344;917.8762;;;;
2020/10/03 18:54:44;;;;;;;6.1;3.3;;;;;;;9.62;90.74902;917.8284;;;;
2020/10/03 18:57:10;;;;;;;3;2.3;;;;;;;9.67;90.51953;917.856;;;;
2020/10/03 18:59:35;;;;;;;6.5;3.5;;;;;;;9.56;90.17773;917.6872;;;;
2020/10/03 19:02:01;;;;;;;4.1;1.8;;;;;;;9.38;90.71094;917.7317;;;;
2020/10/03 19:04:26;;;;;;;3.3;2.1;;;;;;;9.28;91.40527;917.6869;;;;
2020/10/03 19:06:54;;;;;;;5.2;2.7;;;;;;;9.21;92.07324;917.7062;;;;
2020/10/03 19:09:19;;;;;;;9;5.1;;;;;;;9.28;91.56543;917.752;;;;
2020/10/03 19:11:44;;;;;;;5.7;2.2;;;;;;;9.3;91.19336;917.6325;;;;
2020/10/03 19:14:09;;;;;;;2.3;1.8;;;;;;;9.41;90.40918;917.5644;;;;
2020/10/03 19:16:35;;;;;;;5.5;1.5;;;;;;;9.38;90.01465;917.5023;;;;
2020/10/03 19:19:01;;;;;;;3.3;1.5;;;;;;;9.47;89.56641;917.5134;;;;
2020/10/03 19:21:30;;;;;;;5.1;1.8;;;;;;;9.45;89.55176;917.5837;;;;
2020/10/03 19:23:55;;;;;;;4.8;2;;;;;;;9.3;89.98633;917.6269;;;;
2020/10/03 19:26:20;;;;;;;9.8;3.1;;;;;;;9.22;90.17578;917.5839;;;;
2020/10/03 19:28:45;;;;;;;8.9;3.2;;;;;;;9.27;90.07129;917.5536;;;;
2020/10/03 19:31:10;;;;;;;4.7;3.1;;;;;;;9.33;89.65234;917.5747;;;;
2020/10/03 19:33:35;;;;;;;5.4;2.7;;;;;;;9.25;89.78516;917.5302;;;;
2020/10/03 19:36:00;;;;;;;3.3;2.3;;;;;;;9.27;89.66406;917.3661;;;;
2020/10/03 19:38:26;;;;;;;2.6;2;;;;;;;9.37;89.17969;917.3914;;;;
2020/10/03 19:40:51;;;;;;;4.3;1.9;;;;;;;9.4;88.83594;917.4612;;;;
2020/10/03 19:43:18;;;;;;;2.7;1.7;;;;;;;9.38;88.7959;917.4459;;;;
2020/10/03 19:45:43;;;;;;;5.2;3.1;;;;;;;9.31;88.9541;917.6434;;;;
2020/10/03 19:48:11;;;;;;;2.8;1.8;;;;;;;9.19;89.04199;917.4984;;;;
2020/10/03 19:50:37;;;;;;;1.5;1.2;;;;;;;9.13;89.17871;917.4869;;;;
2020/10/03 19:53:05;;;;;;;2.9;1.4;;;;;;;9.14;88.63379;917.582;;;;
2020/10/03 19:55:27;;;;;;;1.7;0.9;;;;;;;9.21;88.31738;917.5538;;;;
2020/10/03 19:57:53;;;;;;;1.4;1.1;;;;;;;9.17;88.24121;917.56;;;;
2020/10/03 20:00:23;;;;;;;1.9;1.3;;;;;;;9.11;88.65137;917.5761;;;;
2020/10/03 20:03:00;;;;;;;1.4;1.1;;;;;;;9.19;88.32324;917.6018;;;;
2020/10/03 20:05:23;;;;;;;1.7;1.3;;;;;;;9.23;87;917.5235;;;;
2020/10/03 20:07:48;;;;;;;1.6;1.3;;;;;;;9.21;87.11035;917.5524;;;;
2020/10/03 20:10:14;;;;;;;2.2;1.4;;;;;;;9.26;86.56348;917.6063;;;;
2020/10/03 20:12:39;;;;;;;2.7;1.6;;;;;;;9.21;86.3252;917.627;;;;
2020/10/03 20:15:05;;;;;;;2.2;1.3;;;;;;;9.21;86.01758;917.5585;;;;
2020/10/03 20:17:30;;;;;;;2.1;1.2;;;;;;;9.26;85.66406;917.5506;;;;
2020/10/03 20:19:58;;;;;;;2;1.2;;;;;;;9.22;85.83691;917.6467;;;;
2020/10/03 20:22:23;;;;;;;2.1;1.5;;;;;;;9.17;85.9082;917.5886;;;;
2020/10/03 20:24:50;;;;;;;3.3;2;;;;;;;9.07;85.82031;917.6453;;;;
2020/10/03 20:27:15;;;;;;;2.6;1.7;;;;;;;8.85;86.8916;917.7449;;;;
2020/10/03 20:29:40;;;;;;;4.2;1.9;;;;;;;8.8;87.83594;917.6487;;;;
2020/10/03 20:32:05;;;;;;;3.2;1.7;;;;;;;8.75;88.37012;917.675;;;;
2020/10/03 20:34:30;;;;;;;3.5;1.6;;;;;;;8.75;88.29102;917.7678;;;;
2020/10/03 20:36:56;;;;;;;2.8;1.7;;;;;;;8.73;87.57129;917.8339;;;;
2020/10/03 20:39:21;;;;;;;3.1;2.1;;;;;;;8.69;86.26953;917.7997;;;;
2020/10/03 20:41:46;;;;;;;2;1.4;;;;;;;8.47;87.66504;917.7769;;;;
2020/10/03 20:44:12;;;;;;;2.2;1.3;;;;;;;8.49;88.03418;917.8194;;;;
2020/10/03 20:46:37;;;;;;;3.1;1.5;;;;;;;8.53;87.33691;917.7053;;;;
2020/10/03 20:49:04;;;;;;;2.4;1.9;;;;;;;8.49;87.59082;917.775;;;;
2020/10/03 20:51:29;;;;;;;1.9;1.3;;;;;;;8.35;87.68652;917.723;;;;
2020/10/03 20:53:55;;;;;;;2.5;1.4;;;;;;;8.5;86.72949;917.8636;;;;
2020/10/03 20:56:20;;;;;;;2;1.3;;;;;;;8.49;87;917.9478;;;;
2020/10/03 20:58:45;;;;;;;2;1.2;;;;;;;8.41;87.58594;917.8691;;;;
2020/10/03 21:01:10;;;;;;;2.7;1.3;;;;;;;8.47;86.68848;917.8975;;;;
2020/10/03 21:03:35;;;;;;;2.1;1.5;;;;;;;8.44;86.83008;917.8837;;;;
2020/10/03 21:06:01;;;;;;;2.9;1.7;;;;;;;8.5;86.66113;917.908;;;;
2020/10/03 21:08:27;;;;;;;2.4;1.4;;;;;;;8.48;87.13281;917.8909;;;;
2020/10/03 21:10:52;;;;;;;1.6;1.1;;;;;;;8.35;87.4502;917.9727;;;;
2020/10/03 21:13:18;;;;;;;1.5;1.2;;;;;;;8.25;87.87109;917.9565;;;;
2020/10/03 21:15:43;;;;;;;4.7;1.4;;;;;;;8.34;87.66211;918.0284;;;;
2020/10/03 21:18:09;;;;;;;3.3;1.4;;;;;;;8.21;88.71387;917.9473;;;;
2020/10/03 21:20:34;;;;;;;2.4;1.2;;;;;;;8.3;88.47266;917.8796;;;;
2020/10/03 21:22:59;;;;;;;1.1;1;;;;;;;8.27;88.23828;917.8318;;;;
2020/10/03 21:25:25;;;;;;;2.2;1.2;;;;;;;8.04;89.48438;917.899;;;;
2020/10/03 21:27:50;;;;;;;1.6;1.3;;;;;;;8.18;89.53711;917.6949;;;;
2020/10/03 21:30:16;;;;;;;1.7;1.3;;;;;;;8.23;89.09375;917.8332;;;;
2020/10/03 21:32:41;;;;;;;2;1.4;;;;;;;8.23;88.78711;917.7317;;;;
2020/10/03 21:35:09;;;;;;;1.3;0.9;;;;;;;8.13;89.40234;917.7067;;;;
2020/10/03 21:37:34;;;;;;;0.8;0.8;;;;;;;8.15;88.81543;917.7659;;;;
2020/10/03 21:39:59;;;;;;;1.1;1;;;;;;;8.03;88.97363;917.6432;;;;
2020/10/03 21:42:24;;;;;;;2.5;0.8;;;;;;;7.91;89.73047;917.7358;;;;
2020/10/03 21:44:49;;;;;;;0.6;0.6;;;;;;;7.62;91.56543;917.6895;;;;
2020/10/03 21:47:15;;;;;;;1.5;0.8;;;;;;;7.55;92.11523;917.8003;;;;
2020/10/03 21:49:40;;;;;;;1.3;0.9;;;;;;;7.61;92.02832;917.7308;;;;
2020/10/03 21:52:05;;;;;;;3.3;0.9;;;;;;;7.62;91.9834;917.7679;;;;
2020/10/03 21:54:35;;;;;;;1.2;0.9;;;;;;;7.63;92.18945;917.8232;;;;
2020/10/03 21:56:58;;;;;;;0.7;0.7;;;;;;;7.7;92.18457;917.8254;;;;
2020/10/03 21:59:23;;;;;;;1.7;0.9;;;;;;;7.75;91.5127;917.7661;;;;
2020/10/03 22:01:48;;;;;;;1;0.7;;;;;;;7.86;90.91211;917.6169;;;;
2020/10/03 22:04:15;;;;;;;1.1;0.8;;;;;;;7.8;91.30957;917.756;;;;
2020/10/03 22:06:40;;;;;;;0.6;0.6;;;;;;;7.88;90.80469;917.8851;;;;
2020/10/03 22:09:05;;;;;;;1.1;0.7;;;;;;;7.94;90.62305;917.8628;;;;
2020/10/03 22:11:30;;;;;;;1.7;0.7;;;;;;;7.92;90.79883;917.8362;;;;
2020/10/03 22:13:56;;;;;;;1.1;0.8;;;;;;;7.91;90.72852;917.8514;;;;
2020/10/03 22:16:21;;;;;;;0.8;0.7;;;;;;;7.91;90.54883;917.8506;;;;
2020/10/03 22:18:48;;;;;;;0.4;0.4;;;;;;;7.56;91.99414;917.8127;;;;
2020/10/03 22:21:13;;;;;;;1.9;0.5;;;;;;;7.44;92.8418;917.7247;;;;
2020/10/03 22:23:38;;;;;;;0.7;0.6;;;;;;;7.18;94.05469;917.777;;;;
2020/10/03 22:26:04;;;;;;;0.6;0.6;;;;;;;7.06;94.48145;917.7413;;;;
2020/10/03 22:28:29;;;;;;;0.8;0.6;;;;;;;7.05;95.15723;917.6931;;;;
2020/10/03 22:30:55;;;;;;;0.8;0.7;;;;;;;7.26;94.01367;917.6705;;;;
2020/10/03 22:33:20;;;;;;;1.6;0.8;;;;;;;7.19;93.75;917.7335;;;;
2020/10/03 22:35:48;;;;;;;1.9;1.4;;;;;;;7.2;94.06934;917.6811;;;;
2020/10/03 22:38:13;;;;;;;2.5;1.3;;;;;;;7.19;94.81543;917.6013;;;;
2020/10/03 22:40:40;;;;;;;0.8;0.7;;;;;;;7.27;94.73145;917.6727;;;;
2020/10/03 22:43:05;;;;;;;0.8;0.7;;;;;;;7.53;93.8125;917.6642;;;;